createdAt,value
2019-02-02T00:01:09.487Z,98643.44
2019-02-02T00:03:34.013Z,98636.22
2019-02-02T00:05:58.493Z,98638.90
2019-02-02T00:08:22.917Z,98641.73
2019-02-02T00:10:47.390Z,98643.78
2019-02-02T00:13:11.902Z,98645.66
2019-02-02T00:15:36.440Z,98639.16
2019-02-02T00:18:00.994Z,98647.03
2019-02-02T00:20:25.464Z,98645.25
2019-02-02T00:22:49.902Z,98645.81
2019-02-02T00:25:14.741Z,98652.27
2019-02-02T00:27:41.506Z,98649.52
2019-02-02T00:30:11.283Z,98650.89
2019-02-02T00:32:35.679Z,98649.94
2019-02-02T00:35:00.104Z,98647.39
2019-02-02T00:37:24.663Z,98651.50
2019-02-02T00:39:49.100Z,98643.29
2019-02-02T00:42:13.501Z,98644.14
2019-02-02T00:44:37.931Z,98652.08
2019-02-02T00:47:02.337Z,98650.55
2019-02-02T00:49:26.760Z,98656.27
2019-02-02T00:51:51.233Z,98655.89
2019-02-02T00:54:15.660Z,98652.86
2019-02-02T00:56:40.194Z,98646.37
2019-02-02T00:59:04.873Z,98652.86
2019-02-02T01:01:29.422Z,98660.58
2019-02-02T01:03:53.912Z,98664.15
2019-02-02T01:06:18.372Z,98656.30
2019-02-02T01:08:42.865Z,98665.17
2019-02-02T01:11:07.414Z,98671.67
2019-02-02T01:13:31.823Z,98671.00
2019-02-02T01:15:56.407Z,98681.27
2019-02-02T01:18:20.866Z,98687.34
2019-02-02T01:20:45.427Z,98690.34
2019-02-02T01:23:09.966Z,98690.52
2019-02-02T01:25:34.468Z,98685.89
2019-02-02T01:28:05.515Z,98676.11
2019-02-02T01:30:25.940Z,98675.27
2019-02-02T01:32:50.504Z,98675.98
2019-02-02T01:35:17.160Z,98676.47
2019-02-02T01:37:41.699Z,98678.20
2019-02-02T01:40:12.142Z,98672.55
2019-02-02T01:42:36.641Z,98671.36
2019-02-02T01:45:01.104Z,98674.34
2019-02-02T01:47:27.135Z,98674.68
2019-02-02T01:49:51.548Z,98672.53
2019-02-02T01:52:15.974Z,98666.38
2019-02-02T01:54:40.451Z,98664.16
2019-02-02T01:57:05.124Z,98654.23
2019-02-02T01:59:29.530Z,98657.23
2019-02-02T02:01:54.136Z,98648.06
2019-02-02T02:04:18.575Z,98590.21
2019-02-02T02:06:43.078Z,98645.32
2019-02-02T02:09:08.013Z,98645.06
2019-02-02T02:11:32.448Z,98651.66
2019-02-02T02:13:56.862Z,98653.97
2019-02-02T02:16:21.359Z,98653.19
2019-02-02T02:18:45.764Z,98653.55
2019-02-02T02:21:10.244Z,98650.56
2019-02-02T02:23:36.724Z,98656.62
2019-02-02T02:26:00.841Z,98656.22
2019-02-02T02:28:28.201Z,98648.75
2019-02-02T02:30:51.350Z,98648.33
2019-02-02T02:33:15.947Z,98646.97
2019-02-02T02:35:40.310Z,98655.86
2019-02-02T02:38:04.807Z,98656.55
2019-02-02T02:40:29.281Z,98649.28
2019-02-02T02:42:53.969Z,98649.44
2019-02-02T02:45:18.602Z,98655.53
2019-02-02T02:47:43.180Z,98659.73
2019-02-02T02:50:15.772Z,98652.01
2019-02-02T02:52:40.230Z,98654.83
2019-02-02T02:55:07.476Z,98651.84
2019-02-02T02:57:31.906Z,98650.28
2019-02-02T02:59:56.298Z,98657.32
2019-02-02T03:02:28.073Z,98660.90
2019-02-02T03:04:52.514Z,98663.64
2019-02-02T03:07:19.388Z,98663.31
2019-02-02T03:09:43.040Z,98650.64
2019-02-02T03:12:07.611Z,98650.55
2019-02-02T03:14:32.033Z,98643.11
2019-02-02T03:16:56.510Z,98646.77
2019-02-02T03:19:20.934Z,98642.59
2019-02-02T03:21:45.343Z,98646.45
2019-02-02T03:24:09.851Z,98646.69
2019-02-02T03:26:34.255Z,98651.16
2019-02-02T03:28:58.653Z,98654.31
2019-02-02T03:31:23.082Z,98646.88
2019-02-02T03:33:47.486Z,98655.09
2019-02-02T03:36:11.985Z,98649.17
2019-02-02T03:38:36.535Z,98649.79
2019-02-02T03:41:00.880Z,98655.34
2019-02-02T03:43:25.286Z,98665.72
2019-02-02T03:45:49.720Z,98664.24
2019-02-02T03:48:14.113Z,98664.69
2019-02-02T03:50:38.530Z,98666.22
2019-02-02T03:53:02.996Z,98660.75
2019-02-02T03:55:27.490Z,98656.88
2019-02-02T03:57:51.927Z,98659.89
2019-02-02T04:00:20.731Z,98660.91
2019-02-02T04:02:45.673Z,98655.87
2019-02-02T04:05:13.399Z,98654.57
2019-02-02T04:07:37.829Z,98651.17
2019-02-02T04:10:02.225Z,98660.22
2019-02-02T04:12:26.658Z,98647.89
2019-02-02T04:14:51.056Z,98647.22
2019-02-02T04:17:15.480Z,98642.33
2019-02-02T04:19:39.880Z,98623.08
2019-02-02T04:22:08.751Z,98612.48
2019-02-02T04:24:33.159Z,98607.00
2019-02-02T04:26:57.577Z,98611.52
2019-02-02T04:29:21.980Z,98615.19
2019-02-02T04:31:46.416Z,98614.17
2019-02-02T04:34:10.822Z,98609.20
2019-02-02T04:36:35.299Z,98623.59
2019-02-02T04:38:59.808Z,98633.44
2019-02-02T04:41:24.206Z,98636.95
2019-02-02T04:43:48.711Z,98647.55
2019-02-02T04:46:13.106Z,98650.11
2019-02-02T04:48:37.540Z,98548.98
2019-02-02T04:51:01.950Z,98639.48
2019-02-02T04:53:26.453Z,98655.78
2019-02-02T04:55:50.919Z,98671.19
2019-02-02T04:58:15.346Z,98671.88
2019-02-02T05:00:39.738Z,98682.14
2019-02-02T05:03:04.508Z,98674.59
2019-02-02T05:05:28.919Z,98664.52
2019-02-02T05:07:53.348Z,98662.63
2019-02-02T05:10:20.231Z,98661.69
2019-02-02T05:12:44.697Z,98663.48
2019-02-02T05:15:09.645Z,98662.73
2019-02-02T05:17:34.046Z,98663.33
2019-02-02T05:19:58.472Z,98662.63
2019-02-02T05:22:22.871Z,98668.63
2019-02-02T05:24:47.290Z,98676.15
2019-02-02T05:27:11.686Z,98668.26
2019-02-02T05:29:41.682Z,98661.08
2019-02-02T05:32:02.286Z,98660.73
2019-02-02T05:34:26.711Z,98663.99
2019-02-02T05:36:51.154Z,98648.59
2019-02-02T05:39:15.604Z,98650.63
2019-02-02T05:41:39.987Z,98659.70
2019-02-02T05:44:04.663Z,98663.13
2019-02-02T05:46:29.075Z,98658.35
2019-02-02T05:48:53.482Z,98658.77
2019-02-02T05:51:17.910Z,98670.75
2019-02-02T05:53:42.449Z,98684.20
2019-02-02T05:56:06.884Z,98690.78
2019-02-02T05:58:31.275Z,98699.34
2019-02-02T06:00:56.166Z,98697.97
2019-02-02T06:03:20.713Z,98701.67
2019-02-02T06:05:45.136Z,98708.61
2019-02-02T06:08:09.614Z,98718.96
2019-02-02T06:10:34.073Z,98704.58
2019-02-02T06:12:58.519Z,98710.74
2019-02-02T06:15:22.957Z,98719.30
2019-02-02T06:17:47.437Z,98720.16
2019-02-02T06:20:14.001Z,98711.26
2019-02-02T06:22:38.405Z,98717.43
2019-02-02T06:25:02.813Z,98722.56
2019-02-02T06:27:27.253Z,98723.75
2019-02-02T06:29:51.727Z,98723.57
2019-02-02T06:32:16.179Z,98725.05
2019-02-02T06:34:40.756Z,98725.64
2019-02-02T06:37:05.213Z,98721.53
2019-02-02T06:39:29.617Z,98722.38
2019-02-02T06:41:54.051Z,98719.38
2019-02-02T06:44:18.461Z,98723.23
2019-02-02T06:46:43.836Z,98725.48
2019-02-02T06:49:08.370Z,98738.83
2019-02-02T06:51:32.801Z,98738.76
2019-02-02T06:53:57.198Z,98735.58
2019-02-02T06:56:21.624Z,98743.28
2019-02-02T06:58:46.024Z,98745.17
2019-02-02T07:01:10.493Z,98753.66
2019-02-02T07:03:35.794Z,98754.77
2019-02-02T07:06:00.213Z,98746.72
2019-02-02T07:08:24.733Z,98746.28
2019-02-02T07:10:49.143Z,98761.29
2019-02-02T07:13:13.616Z,98772.59
2019-02-02T07:15:38.022Z,98789.38
2019-02-02T07:18:02.525Z,98780.30
2019-02-02T07:20:27.339Z,98783.13
2019-02-02T07:22:51.856Z,98802.58
2019-02-02T07:25:16.343Z,98795.13
2019-02-02T07:27:40.927Z,98800.88
2019-02-02T07:30:29.477Z,98820.84
2019-02-02T07:32:53.887Z,98830.02
2019-02-02T07:35:17.558Z,98820.41
2019-02-02T07:37:42.041Z,98833.77
2019-02-02T07:40:09.560Z,98815.52
2019-02-02T07:42:33.962Z,98804.47
2019-02-02T07:44:58.389Z,98821.59
2019-02-02T07:47:22.891Z,98828.81
2019-02-02T07:49:47.331Z,98813.98
2019-02-02T07:52:11.810Z,98808.24
2019-02-02T07:54:36.240Z,98812.42
2019-02-02T07:57:00.653Z,98812.53
2019-02-02T07:59:25.129Z,98809.94
2019-02-02T08:01:49.606Z,98813.20
2019-02-02T08:04:14.033Z,98814.91
2019-02-02T08:06:38.438Z,98806.19
2019-02-02T08:09:04.581Z,98804.39
2019-02-02T08:11:30.453Z,98800.16
2019-02-02T08:13:54.879Z,98798.77
2019-02-02T08:16:19.305Z,98798.24
2019-02-02T08:18:43.719Z,98795.89
2019-02-02T08:21:08.354Z,98800.16
2019-02-02T08:23:32.780Z,98806.86
2019-02-02T08:25:57.272Z,98795.55
2019-02-02T08:28:22.003Z,98802.38
2019-02-02T08:30:52.614Z,98816.95
2019-02-02T08:33:12.591Z,98819.44
2019-02-02T08:35:37.090Z,98822.28
2019-02-02T08:38:01.561Z,98818.17
2019-02-02T08:40:26.062Z,98807.87
2019-02-02T08:42:50.596Z,98820.89
2019-02-02T08:45:15.744Z,98827.59
2019-02-02T08:47:40.168Z,98830.19
2019-02-02T08:50:11.102Z,98830.00
2019-02-02T08:52:35.529Z,98844.22
2019-02-02T08:54:59.951Z,98849.90
2019-02-02T08:57:24.458Z,98870.19
2019-02-02T08:59:48.869Z,98880.20
2019-02-02T09:02:13.448Z,98897.33
2019-02-02T09:04:37.980Z,98910.03
2019-02-02T09:07:02.446Z,98908.78
2019-02-02T09:09:26.867Z,98914.70
2019-02-02T09:11:51.382Z,98858.00
2019-02-02T09:14:15.782Z,98918.45
2019-02-02T09:16:40.263Z,98920.98
2019-02-02T09:19:04.811Z,98910.41
2019-02-02T09:21:29.207Z,98900.84
2019-02-02T09:23:53.643Z,98894.70
2019-02-02T09:26:18.059Z,98902.51
2019-02-02T09:28:43.507Z,98897.25
2019-02-02T09:31:15.598Z,98893.55
2019-02-02T09:33:34.097Z,98892.98
2019-02-02T09:35:58.510Z,98888.72
2019-02-02T09:38:23.072Z,98890.52
2019-02-02T09:40:47.494Z,98893.67
2019-02-02T09:43:12.089Z,98893.39
2019-02-02T09:45:36.612Z,98896.57
2019-02-02T09:48:01.169Z,98903.67
2019-02-02T09:50:27.025Z,98900.22
2019-02-02T09:52:51.676Z,98905.64
2019-02-02T09:55:18.557Z,98915.77
2019-02-02T09:57:43.129Z,98912.40
2019-02-02T10:00:10.626Z,98919.33
2019-02-02T10:02:35.039Z,98914.14
2019-02-02T10:04:59.468Z,98917.63
2019-02-02T10:07:23.896Z,98913.83
2019-02-02T10:09:48.318Z,98903.22
2019-02-02T10:12:12.995Z,98909.03
2019-02-02T10:14:37.428Z,98910.41
2019-02-02T10:17:01.844Z,98911.02
2019-02-02T10:19:26.356Z,98924.64
2019-02-02T10:21:50.755Z,98929.43
2019-02-02T10:24:15.201Z,98933.57
2019-02-02T10:26:39.612Z,98925.34
2019-02-02T10:29:04.132Z,98924.88
2019-02-02T10:31:38.918Z,98927.05
2019-02-02T10:33:54.647Z,98926.50
2019-02-02T10:36:20.156Z,98934.90
2019-02-02T10:38:44.657Z,98937.15
2019-02-02T10:41:09.228Z,98938.84
2019-02-02T10:43:33.632Z,98932.46
2019-02-02T10:45:58.133Z,98927.54
2019-02-02T10:48:22.542Z,98927.54
2019-02-02T10:50:46.971Z,98920.08
2019-02-02T10:53:11.400Z,98917.45
2019-02-02T10:55:35.977Z,98924.33
2019-02-02T10:58:00.451Z,98915.58
2019-02-02T11:00:27.659Z,98910.25
2019-02-02T11:02:56.760Z,98909.91
2019-02-02T11:05:21.398Z,98912.30
2019-02-02T11:07:45.899Z,98910.06
2019-02-02T11:10:13.500Z,98910.92
2019-02-02T11:12:37.948Z,98917.28
2019-02-02T11:15:02.648Z,98922.24
2019-02-02T11:17:28.705Z,98926.52
2019-02-02T11:19:53.139Z,98924.45
2019-02-02T11:22:17.740Z,98935.08
2019-02-02T11:24:42.312Z,98937.01
2019-02-02T11:27:06.783Z,98940.19
2019-02-02T11:29:31.322Z,98939.91
2019-02-02T11:32:02.435Z,98936.78
2019-02-02T11:34:21.919Z,98936.14
2019-02-02T11:36:46.350Z,98929.28
2019-02-02T11:39:10.902Z,98921.53
2019-02-02T11:41:35.329Z,98918.38
2019-02-02T11:43:59.758Z,98924.14
2019-02-02T11:46:24.222Z,98921.81
2019-02-02T11:48:48.637Z,98925.75
2019-02-02T11:51:13.175Z,98933.00
2019-02-02T11:53:37.768Z,98918.59
2019-02-02T11:56:02.182Z,98928.88
2019-02-02T11:58:26.642Z,98941.99
2019-02-02T12:00:51.139Z,98936.76
2019-02-02T12:03:15.568Z,98945.31
2019-02-02T12:05:40.051Z,98939.70
2019-02-02T12:08:04.729Z,98945.42
2019-02-02T12:10:31.066Z,98939.94
2019-02-02T12:12:55.647Z,98938.94
2019-02-02T12:15:20.239Z,98938.25
2019-02-02T12:17:44.793Z,98945.88
2019-02-02T12:20:12.567Z,98948.67
2019-02-02T12:22:37.039Z,98961.95
2019-02-02T12:25:02.217Z,98967.98
2019-02-02T12:27:26.767Z,98961.59
2019-02-02T12:32:27.043Z,98971.79
2019-02-02T12:34:51.663Z,98976.14
2019-02-02T12:37:16.139Z,98987.86
2019-02-02T12:39:40.653Z,98991.06
2019-02-02T12:42:05.198Z,98989.79
2019-02-02T12:44:29.645Z,98989.88
2019-02-02T12:46:54.061Z,98993.19
2019-02-02T12:49:18.490Z,98997.13
2019-02-02T12:51:42.893Z,98993.42
2019-02-02T12:54:07.342Z,98994.13
2019-02-02T12:56:31.773Z,98991.20
2019-02-02T12:58:56.359Z,99004.19
2019-02-02T13:01:20.780Z,99002.36
2019-02-02T13:03:45.195Z,99001.70
2019-02-02T13:06:09.631Z,99007.80
2019-02-02T13:08:34.058Z,99016.59
2019-02-02T13:10:58.485Z,99020.58
2019-02-02T13:13:22.890Z,99015.39
2019-02-02T13:15:47.386Z,99016.00
2019-02-02T13:18:11.859Z,99014.39
2019-02-02T13:20:36.368Z,99013.56
2019-02-02T13:23:00.870Z,99009.03
2019-02-02T13:25:25.458Z,99011.11
2019-02-02T13:27:49.992Z,99011.26
2019-02-02T13:30:20.492Z,99021.33
2019-02-02T13:32:49.727Z,99017.22
2019-02-02T13:35:13.951Z,99026.60
2019-02-02T13:37:38.447Z,99033.39
2019-02-02T13:40:03.747Z,99039.70
2019-02-02T13:42:28.243Z,99031.06
2019-02-02T13:44:52.662Z,99030.14
2019-02-02T13:49:51.112Z,99031.30
2019-02-02T13:52:15.633Z,99037.56
2019-02-02T13:54:40.057Z,99040.80
2019-02-02T13:57:04.560Z,99043.38
2019-02-02T13:59:28.988Z,99046.98
2019-02-02T14:01:53.477Z,99049.53
2019-02-02T14:04:17.893Z,99054.21
2019-02-02T14:06:42.341Z,99062.55
2019-02-02T14:09:08.002Z,99058.84
2019-02-02T14:11:32.404Z,99073.69
2019-02-02T14:13:56.849Z,99061.42
2019-02-02T14:16:21.312Z,99063.42
2019-02-02T14:18:45.741Z,99061.89
2019-02-02T14:21:10.232Z,99067.88
2019-02-02T14:23:34.756Z,99074.28
2019-02-02T14:25:59.238Z,99074.69
2019-02-02T14:28:28.541Z,99073.11
2019-02-02T14:30:49.794Z,99080.14
2019-02-02T14:33:14.686Z,99074.86
2019-02-02T14:35:39.190Z,99081.28
2019-02-02T14:38:03.806Z,99083.73
2019-02-02T14:40:28.235Z,99077.38
2019-02-02T14:42:52.736Z,99073.08
2019-02-02T14:45:20.200Z,99081.40
2019-02-02T14:47:44.678Z,99082.48
2019-02-02T14:50:11.915Z,99079.28
2019-02-02T14:52:36.322Z,99087.59
2019-02-02T14:55:00.858Z,99098.09
2019-02-02T14:57:25.268Z,99105.70
2019-02-02T14:59:49.738Z,99116.22
2019-02-02T15:02:14.338Z,99120.38
2019-02-02T15:04:38.759Z,99123.11
2019-02-02T15:07:03.167Z,99127.91
2019-02-02T15:09:27.627Z,99133.84
2019-02-02T15:11:52.038Z,99140.55
2019-02-02T15:14:16.492Z,99144.51
2019-02-02T15:16:40.913Z,99144.23
2019-02-02T15:19:05.452Z,99142.17
2019-02-02T15:21:29.896Z,99149.98
2019-02-02T15:23:54.296Z,99153.53
2019-02-02T15:26:18.810Z,99158.27
2019-02-02T15:28:43.223Z,99165.46
2019-02-02T15:31:07.734Z,99171.19
2019-02-02T15:33:37.924Z,99172.20
2019-02-02T15:35:58.397Z,99176.44
2019-02-02T15:38:22.752Z,99174.22
2019-02-02T15:40:58.460Z,99174.53
2019-02-02T15:43:13.300Z,99175.19
2019-02-02T15:45:37.753Z,99177.06
2019-02-02T15:48:02.162Z,99185.39
2019-02-02T15:50:26.672Z,99188.27
2019-02-02T15:52:51.165Z,99198.75
2019-02-02T15:55:18.073Z,99205.45
2019-02-02T15:57:42.664Z,99209.33
2019-02-02T16:00:10.119Z,99203.67
2019-02-02T16:02:34.557Z,99205.69
2019-02-02T16:04:58.968Z,99201.95
2019-02-02T16:07:23.395Z,99199.25
2019-02-02T16:09:47.818Z,99200.91
2019-02-02T16:12:12.248Z,99213.28
2019-02-02T16:14:36.683Z,99217.80
2019-02-02T16:17:01.177Z,99217.42
2019-02-02T16:19:25.626Z,99224.47
2019-02-02T16:21:50.133Z,99234.08
2019-02-02T16:24:14.618Z,99238.92
2019-02-02T16:26:39.046Z,99242.94
2019-02-02T16:29:03.548Z,99251.10
2019-02-02T16:31:27.962Z,99259.33
2019-02-02T16:34:01.453Z,99260.88
2019-02-02T16:36:18.517Z,99259.66
2019-02-02T16:38:42.981Z,99264.52
2019-02-02T16:41:07.397Z,99275.41
2019-02-02T16:43:31.850Z,99273.79
2019-02-02T16:45:56.348Z,99278.92
2019-02-02T16:48:20.787Z,99286.19
2019-02-02T16:50:45.289Z,99291.39
2019-02-02T16:53:09.804Z,99308.42
2019-02-02T16:55:34.225Z,99311.89
2019-02-02T16:57:58.732Z,99310.39
2019-02-02T17:00:25.078Z,99305.46
2019-02-02T17:02:49.625Z,99317.34
2019-02-02T17:05:14.318Z,99307.08
2019-02-02T17:07:38.815Z,99314.11
2019-02-02T17:10:03.701Z,99314.09
2019-02-02T17:12:28.113Z,99265.60
2019-02-02T17:14:55.575Z,99321.41
2019-02-02T17:17:32.437Z,99334.84
2019-02-02T17:19:56.931Z,99338.27
2019-02-02T17:22:21.365Z,99344.92
2019-02-02T17:24:45.814Z,99355.59
2019-02-02T17:27:10.236Z,99356.99
2019-02-02T17:29:34.678Z,99356.45
2019-02-02T17:31:59.236Z,99355.95
2019-02-02T17:34:27.483Z,99362.31
2019-02-02T17:36:49.847Z,99361.34
2019-02-02T17:39:14.295Z,99365.62
2019-02-02T17:41:38.784Z,99368.13
2019-02-02T17:44:03.211Z,99380.62
2019-02-02T17:46:27.663Z,99391.23
2019-02-02T17:48:52.095Z,99389.97
2019-02-02T17:51:16.551Z,99395.09
2019-02-02T17:53:40.979Z,99396.88
2019-02-02T17:56:05.707Z,99407.99
2019-02-02T17:58:39.289Z,99411.39
2019-02-02T18:00:56.633Z,99416.48
2019-02-02T18:03:21.107Z,99410.62
2019-02-02T18:05:45.613Z,99414.69
2019-02-02T18:08:10.184Z,99429.76
2019-02-02T18:10:34.770Z,99436.98
2019-02-02T18:12:59.247Z,99439.46
2019-02-02T18:15:23.711Z,99440.56
2019-02-02T18:17:48.123Z,99451.27
2019-02-02T18:20:16.677Z,99462.96
2019-02-02T18:22:41.197Z,99413.20
2019-02-02T18:25:08.625Z,99470.84
2019-02-02T18:27:33.064Z,99469.75
2019-02-02T18:29:57.554Z,99470.53
2019-02-02T18:32:32.689Z,99478.99
2019-02-02T18:34:57.108Z,99484.00
2019-02-02T18:37:21.612Z,99489.03
2019-02-02T18:39:46.017Z,99488.23
2019-02-02T18:42:10.458Z,99482.22
2019-02-02T18:44:34.937Z,99486.04
2019-02-02T18:46:59.388Z,99476.48
2019-02-02T18:49:23.880Z,99482.26
2019-02-02T18:51:48.385Z,99485.41
2019-02-02T18:54:12.793Z,99497.19
2019-02-02T18:56:37.304Z,99493.62
2019-02-02T18:59:01.745Z,99487.38
2019-02-02T19:01:26.158Z,99497.09
2019-02-02T19:03:50.614Z,99500.50
2019-02-02T19:06:15.065Z,99498.33
2019-02-02T19:08:39.578Z,99496.82
2019-02-02T19:11:04.157Z,99494.14
2019-02-02T19:13:28.693Z,99501.60
2019-02-02T19:15:53.108Z,99500.53
2019-02-02T19:18:17.561Z,99503.57
2019-02-02T19:20:42.042Z,99502.62
2019-02-02T19:23:06.724Z,99506.34
2019-02-02T19:25:31.135Z,99506.09
2019-02-02T19:27:55.678Z,99511.13
2019-02-02T19:30:33.551Z,99514.09
2019-02-02T19:32:58.022Z,99514.88
2019-02-02T19:35:22.541Z,99522.92
2019-02-02T19:37:47.031Z,99527.26
2019-02-02T19:40:14.459Z,99535.91
2019-02-02T19:42:38.959Z,99540.23
2019-02-02T19:45:03.587Z,99540.04
2019-02-02T19:47:27.987Z,99543.19
2019-02-02T19:49:52.431Z,99544.55
2019-02-02T19:52:16.912Z,99545.52
2019-02-02T19:54:41.384Z,99553.33
2019-02-02T19:57:05.931Z,99563.27
2019-02-02T19:59:30.380Z,99556.64
2019-02-02T20:01:54.800Z,99556.30
2019-02-02T20:04:19.232Z,99556.02
2019-02-02T20:06:43.644Z,99569.39
2019-02-02T20:09:09.072Z,99571.70
2019-02-02T20:11:33.520Z,99575.16
2019-02-02T20:13:57.939Z,99578.77
2019-02-02T20:16:22.381Z,99573.26
2019-02-02T20:18:46.789Z,99573.92
2019-02-02T20:21:11.344Z,99578.55
2019-02-02T20:23:38.624Z,99590.34
2019-02-02T20:26:01.936Z,99598.42
2019-02-02T20:28:26.351Z,99593.05
2019-02-02T20:30:50.862Z,99592.38
2019-02-02T20:33:15.309Z,99596.34
2019-02-02T20:35:42.359Z,99603.08
2019-02-02T20:38:05.991Z,99607.27
2019-02-02T20:40:30.513Z,99619.75
2019-02-02T20:42:55.206Z,99627.37
2019-02-02T20:45:27.684Z,99635.23
2019-02-02T20:47:52.224Z,99636.16
2019-02-02T20:50:18.190Z,99642.56
2019-02-02T20:52:47.630Z,99644.33
2019-02-02T20:55:22.982Z,99654.69
2019-02-02T20:57:47.777Z,99655.91
2019-02-02T21:00:15.015Z,99663.27
2019-02-02T21:02:39.461Z,99661.33
2019-02-02T21:05:04.528Z,99674.97
2019-02-02T21:07:28.972Z,99677.15
2019-02-02T21:09:53.380Z,99676.61
2019-02-02T21:12:17.818Z,99672.91
2019-02-02T21:14:42.247Z,99677.27
2019-02-02T21:17:07.146Z,99678.14
2019-02-02T21:19:31.567Z,99676.20
2019-02-02T21:21:56.120Z,99687.69
2019-02-02T21:24:20.535Z,99685.44
2019-02-02T21:26:45.068Z,99704.59
2019-02-02T21:29:09.464Z,99705.62
2019-02-02T21:31:33.918Z,99710.51
2019-02-02T21:33:58.339Z,99714.56
2019-02-02T21:36:22.771Z,99712.43
2019-02-02T21:38:47.305Z,99723.05
2019-02-02T21:41:11.715Z,99723.27
2019-02-02T21:43:36.239Z,99735.89
2019-02-02T21:46:00.651Z,99741.67
2019-02-02T21:48:25.170Z,99747.16
2019-02-02T21:50:49.858Z,99761.61
2019-02-02T21:53:14.318Z,99765.49
2019-02-02T21:55:38.731Z,99771.16
2019-02-02T21:58:03.460Z,99774.28
2019-02-02T22:00:30.227Z,99769.79
2019-02-02T22:02:54.773Z,99775.86
2019-02-02T22:05:19.352Z,99781.31
2019-02-02T22:07:43.863Z,99796.95
2019-02-02T22:10:11.371Z,99808.66
2019-02-02T22:12:35.779Z,99809.06
2019-02-02T22:15:02.584Z,99811.80
2019-02-02T22:17:30.221Z,99816.67
2019-02-02T22:19:54.670Z,99804.34
2019-02-02T22:22:19.096Z,99807.09
2019-02-02T22:24:43.552Z,99810.41
2019-02-02T22:27:08.026Z,99824.66
2019-02-02T22:29:32.542Z,99816.83
2019-02-02T22:31:57.045Z,99823.89
2019-02-02T22:34:21.552Z,99831.13
2019-02-02T22:36:46.252Z,99838.16
2019-02-02T22:39:10.749Z,99848.24
2019-02-02T22:41:35.223Z,99854.40
2019-02-02T22:43:59.646Z,99851.00
2019-02-02T22:46:24.173Z,99854.32
2019-02-02T22:48:48.585Z,99863.33
2019-02-02T22:51:13.020Z,99869.81
2019-02-02T22:53:37.428Z,99884.08
2019-02-02T22:56:01.885Z,99890.72
2019-02-02T22:58:26.298Z,99895.97
2019-02-02T23:01:01.003Z,99903.80
2019-02-02T23:03:37.494Z,99907.14
2019-02-02T23:06:21.462Z,99914.34
2019-02-02T23:09:23.646Z,99915.73
2019-02-02T23:12:05.818Z,99910.27
2019-02-02T23:14:36.314Z,99907.71
2019-02-02T23:17:00.842Z,99911.42
2019-02-02T23:19:25.324Z,99913.39
2019-02-02T23:21:49.761Z,99920.03
2019-02-02T23:24:14.251Z,99924.71
2019-02-02T23:26:38.663Z,99925.89
2019-02-02T23:29:03.522Z,99932.90
2019-02-02T23:31:27.932Z,99934.45
2019-02-02T23:33:52.384Z,99926.45
2019-02-02T23:36:16.940Z,99931.38
2019-02-02T23:38:41.456Z,99932.13
2019-02-02T23:41:06.024Z,99936.83
2019-02-02T23:43:30.465Z,99939.17
2019-02-02T23:45:54.877Z,99940.94
2019-02-02T23:48:19.397Z,99947.77
2019-02-02T23:50:43.977Z,99943.67
2019-02-02T23:53:08.401Z,99946.52
2019-02-02T23:55:32.813Z,99940.89
2019-02-02T23:57:57.345Z,99936.98
